Flight Track Log - Related Links

Times and Time Zones

All times are in EDT time to prevent confusion due to time zone crossing. See the UPS208 flight status page for this flight to view local times or setup timezone preferences in your user account.

Time Position Orientation Groundspeed Altitude Reporting Facility
EDT Latitude Longitude Course Direction KTS MPH feet Rate Location/Type
Wed 02:09:15 AM 47.4055 -48.8600 245° Southwest  Level FlightAware Approximate
Wed 02:10:15 AM 47.3829 -49.0379 243° Southwest  Level FlightAware Approximate
Wed 02:11:49 AM 46.9500 -50.2833 262° West 450 518 30,800  Level Gander Center
Wed 02:12:49 AM 46.9333 -50.4500 262° West 450 518 32,600 1,600 Climbing Gander Center
Wed 02:13:49 AM 46.9167 -50.6333 270° West 450 518 34,000 700 Climbing Gander Center
Wed 02:14:49 AM 46.9167 -50.8000 262° West 450 518 34,000  Level Gander Center
Wed 02:15:49 AM 46.9000 -50.9833 262° West 440 506 34,000  Level Gander Center
Wed 02:16:49 AM 46.8833 -51.1500 262° West 440 506 34,000  Level Gander Center
Wed 02:17:49 AM 46.8667 -51.3333 263° West 440 506 34,000  Level Gander Center
Wed 02:18:49 AM 46.8500 -51.5333 262° West 440 506 34,000  Level Gander Center
Wed 02:19:49 AM 46.8333 -51.7000 262° West 440 506 34,000  Level Gander Center
Wed 02:20:49 AM 46.8167 -51.8833 262° West 450 518 34,000  Level Gander Center
Wed 02:21:49 AM 46.8000 -52.0500 263° West 450 518 34,000  Level Gander Center
Wed 02:22:49 AM 46.7833 -52.2500 262° West 440 506 34,000  Level Gander Center
Wed 02:23:49 AM 46.7667 -52.4167 263° West 450 518 34,000  Level Gander Center
Wed 02:24:49 AM 46.7500 -52.6000 262° West 450 518 34,000  Level Gander Center
Wed 02:25:49 AM 46.7333 -52.7667 263° West 440 506 34,000  Level Gander Center
Wed 02:26:49 AM 46.7167 -52.9500 262° West 440 506 34,000  Level Gander Center
Wed 02:27:49 AM 46.7000 -53.1167 256° West 440 506 34,000  Level Gander Center
Wed 02:28:49 AM 46.6667 -53.3167 270° West 450 518 34,000  Level Gander Center
Wed 02:29:49 AM 46.6667 -53.4833 263° West 450 518 34,000  Level Gander Center
Wed 02:30:49 AM 46.6500 -53.6667 262° West 450 518 34,000  Level Gander Center
Wed 02:31:49 AM 46.6333 -53.8333 256° West 450 518 34,000  Level Gander Center
Wed 02:32:49 AM 46.6000 -54.0333 263° West 450 518 34,000  Level Gander Center
Wed 02:33:49 AM 46.5833 -54.2167 262° West 450 518 34,000  Level Gander Center
Wed 02:34:49 AM 46.5667 -54.3833 254° West 450 518 34,000  Level Gander Center
Wed 02:35:49 AM 46.5333 -54.5500 263° West 450 518 34,000  Level Gander Center
Wed 02:36:49 AM 46.5167 -54.7333 270° West 450 518 34,000  Level Gander Center
Wed 02:37:49 AM 46.5167 -54.9167 255° West 450 518 34,000  Level Gander Center
Wed 02:38:49 AM 46.4833 -55.1000 262° West 440 506 34,000  Level Gander Center
Wed 02:39:49 AM 46.4667 -55.2667 255° West 440 506 34,000  Level Gander Center
Wed 02:40:49 AM 46.4333 -55.4500 262° West 440 506 34,000  Level Gander Center
Wed 02:41:49 AM 46.4167 -55.6167 254° West 440 506 34,000  Level Gander Center
Wed 02:42:49 AM 46.3833 -55.7833 270° West 440 506 34,000  Level Gander Center
Wed 02:43:49 AM 46.3833 -55.9500 255° West 430 495 34,000  Level Gander Center
Wed 02:44:49 AM 46.3500 -56.1333 262° West 430 495 34,000  Level Gander Center
Wed 02:45:49 AM 46.3333 -56.3000 254° West 450 518 34,000  Level Gander Center
Wed 02:46:49 AM 46.3000 -56.4667 270° West 430 495 34,000  Level Gander Center
Wed 02:47:49 AM 46.3000 -56.6500 255° West 440 506 34,000  Level Gander Center
Wed 02:48:49 AM 46.2667 -56.8333 261° West 440 506 34,000  Level Gander Center
Wed 02:49:49 AM 46.2500 -56.9833 257° West 440 506 34,000  Level Gander Center
Wed 02:50:49 AM 46.2167 -57.1833 262° West 440 506 34,000  Level Gander Center
Wed 02:51:49 AM 46.2000 -57.3500 262° West 440 506 34,000  Level Gander Center
Wed 02:52:49 AM 46.1833 -57.5167 255° West 440 506 34,000  Level Gander Center
Wed 02:53:49 AM 46.1500 -57.7000 255° West 440 506 34,000  Level Gander Center
Wed 02:54:49 AM 46.1167 -57.8833 261° West 440 506 34,000  Level Gander Center
Wed 02:55:49 AM 46.1000 -58.0333 254° West 440 506 34,000  Level Gander Center
Wed 02:56:49 AM 46.0667 -58.2000 257° West 450 518 34,000  Level Gander Center
Wed 02:57:49 AM 46.0333 -58.4000 270° West 450 518 34,000  Level Gander Center
Wed 02:58:49 AM 46.0333 -58.5667 257° West 450 518 34,000  Level Gander Center
Wed 02:59:49 AM 46.0000 -58.7667 254° West 450 518 34,000  Level Gander Center
Wed 03:00:49 AM 45.9667 -58.9333 254° West 450 518 34,000  Level Gander Center
Wed 03:01:49 AM 45.9333 -59.1000 262° West 450 518 34,000  Level Gander Center
Wed 03:02:49 AM 45.9167 -59.2667 254° West 450 518 34,000  Level Gander Center
Wed 03:03:49 AM 45.8833 -59.4333 263° West 450 518 34,000  Level Gander Center
Wed 03:04:49 AM 45.8667 -59.6333 254° West 450 518 34,000  Level Gander Center
Wed 03:05:49 AM 45.8333 -59.8000 255° West 460 529 34,000  Level Gander Center
Wed 03:06:49 AM 45.8000 -59.9833 254° West 460 529 34,000  Level Gander Center
Wed 03:07:49 AM 45.7667 -60.1500 257° West 450 518 34,000  Level Gander Center
Wed 03:08:49 AM 45.7333 -60.3500 254° West 450 518 34,000  Level Gander Center
Wed 03:09:49 AM 45.7000 -60.5167 262° West 450 518 34,000  Level Gander Center
Wed 03:10:49 AM 45.6833 -60.6833 254° West 450 518 34,000  Level Gander Center
Wed 03:11:49 AM 45.6500 -60.8500 262° West 450 518 34,000  Level Gander Center
Wed 03:12:49 AM 45.6333 -61.0167 257° West 450 518 34,000  Level Gander Center
Wed 03:13:49 AM 45.6000 -61.2167 254° West 450 518 34,000  Level Gander Center
Wed 03:14:49 AM 45.5667 -61.3833 254° West 450 518 34,000  Level Gander Center
Wed 03:15:49 AM 45.5333 -61.5500 254° West 450 518 34,000  Level Gander Center
Wed 03:16:49 AM 45.5000 -61.7167 262° West 450 518 34,000  Level Gander Center
Wed 03:17:49 AM 45.4833 -61.8833 249° West 440 506 34,000  Level Gander Center
Wed 03:18:49 AM 45.4333 -62.0667 247° West 440 506 34,000  Level Gander Center
Wed 03:19:49 AM 45.3833 -62.2333 254° West 440 506 34,000  Level Gander Center
Wed 03:20:49 AM 45.3500 -62.4000 242° Southwest 440 506 34,000  Level Gander Center
Wed 03:21:49 AM 45.3000 -62.5333 247° West 440 506 34,000  Level Gander Center
Wed 03:22:49 AM 45.2500 -62.7000 247° West 440 506 34,000  Level Gander Center
Wed 03:23:49 AM 45.2000 -62.8667 254° West 440 506 34,000  Level Gander Center
Wed 03:24:49 AM 45.1667 -63.0333 247° West 440 506 34,000  Level Gander Center
Wed 03:25:49 AM 45.1167 -63.2000 235° Southwest 440 506 34,000  Level Gander Center
Wed 03:26:49 AM 45.0500 -63.3333 249° West 450 518 34,000  Level Gander Center
Wed 03:27:49 AM 45.0000 -63.5167 253° West 450 518 34,000  Level Gander Center
Wed 03:28:49 AM 44.9667 -63.6667 249° West 450 518 34,000  Level Gander Center
Wed 03:29:49 AM 44.9167 -63.8500 242° Southwest 450 518 34,000  Level Gander Center
Wed 03:30:49 AM 44.8667 -63.9833 241° Southwest 450 518 34,000  Level Gander Center
Wed 03:31:49 AM 44.8000 -64.1500 247° West 440 506 34,000  Level Gander Center
Wed 03:32:49 AM 44.7500 -64.3167 253° West 440 506 34,000  Level Gander Center
Wed 03:33:49 AM 44.7167 -64.4667 241° Southwest 440 506 34,000  Level Gander Center
Wed 03:34:49 AM 44.6500 -64.6333 242° Southwest 440 506 34,000  Level Gander Center
Wed 03:35:49 AM 44.6000 -64.7667 247° West 440 506 34,000  Level Gander Center
Wed 03:36:49 AM 44.5500 -64.9333 253° West 440 506 34,000  Level Gander Center
Wed 03:37:49 AM 44.5167 -65.0833 238° Southwest 420 483 34,000  Level Gander Center
Wed 03:38:49 AM 44.4500 -65.2333 251° West 420 483 34,000  Level Gander Center
Wed 03:40:13 AM 44.4000 -65.4333 245° Southwest 410 472 34,000  Level Moncton Center
Wed 03:41:13 AM 44.3500 -65.5833 245° Southwest 410 472 34,000  Level Moncton Center
Wed 03:42:13 AM 44.3000 -65.7333 242° Southwest 410 472 34,000  Level Moncton Center
Wed 03:43:13 AM 44.2500 -65.8667 242° Southwest 410 472 34,000  Level Moncton Center
Wed 03:44:13 AM 44.2000 -66.0000 245° Southwest 410 472 34,000  Level Moncton Center
Wed 03:45:13 AM 44.1500 -66.1500 245° Southwest 410 472 34,000  Level Moncton Center
Wed 03:46:13 AM 44.1000 -66.3000 245° Southwest 410 472 34,000  Level Moncton Center
Wed 03:47:13 AM 44.0500 -66.4500 243° Southwest 410 472 34,000  Level Moncton Center
Wed 03:48:13 AM 44.0000 -66.5833 243° Southwest 410 472 34,000  Level Moncton Center
Wed 03:49:13 AM 43.9500 -66.7167 241° Southwest 420 483 34,000  Level Moncton Center
Wed 03:50:13 AM 43.8833 -66.8833 251° West 420 483 34,000  Level Moncton Center
Wed 03:51:13 AM 43.8500 -67.0167 250° West 420 483 34,000  Level Moncton Center
Wed 03:52:15 AM 43.8072 -67.1769 245° Southwest 424 488 34,000  Level Boston Center
Wed 03:53:15 AM 43.7575 -67.3222 247° West 424 488 34,000  Level Boston Center
Wed 03:54:15 AM 43.7119 -67.4728 249° West 424 488 34,000  Level Boston Center
Wed 03:55:15 AM 43.6686 -67.6286 248° West 424 488 34,000  Level Boston Center
Wed 03:56:15 AM 43.6228 -67.7842 249° West 430 495 34,000  Level Boston Center
Wed 03:57:15 AM 43.5808 -67.9367 239° Southwest 435 501 34,000  Level Boston Center
Wed 03:58:13 AM 43.5167 -68.0833 255° West 440 506 34,000  Level Moncton Center
Wed 03:59:13 AM 43.4833 -68.2500 245° Southwest 440 506 34,000  Level Moncton Center
Wed 04:00:13 AM 43.4333 -68.4000 243° Southwest 440 506 34,000  Level Moncton Center
Wed 04:01:13 AM 43.3833 -68.5333 255° West 440 506 34,000  Level Moncton Center
Wed 04:02:13 AM 43.3500 -68.7000 245° Southwest 440 506 34,000  Level Moncton Center
Wed 04:03:13 AM 43.3000 -68.8500 245° Southwest 440 506 34,000  Level Moncton Center
Wed 04:04:13 AM 43.2500 -69.0000 248° West 440 506 34,000  Level Moncton Center
Wed 04:05:13 AM 43.2000 -69.1667 245° Southwest 440 506 34,000  Level Moncton Center
Wed 04:06:13 AM 43.1500 -69.3167 255° West 440 506 34,000  Level Moncton Center
Wed 04:07:15 AM 43.1183 -69.4761 248° West 440 506 34,000  Level Boston Center
Wed 04:08:15 AM 43.0722 -69.6317 247° West 445 512 34,000  Level Boston Center
Wed 04:09:15 AM 43.0239 -69.7903 247° West 445 512 34,000  Level Boston Center
Wed 04:10:15 AM 42.9756 -69.9483 247° West 445 512 34,000  Level Boston Center
Wed 04:11:15 AM 42.9267 -70.1036 246° West 445 512 34,000  Level Boston Center
Wed 04:12:15 AM 42.8756 -70.2614 248° West 445 512 34,000  Level Boston Center
Wed 04:13:15 AM 42.8325 -70.4072 246° West 450 518 34,000  Level Boston Center
Wed 04:14:15 AM 42.7750 -70.5789 246° West 456 525 34,000  Level Boston Center
Wed 04:15:15 AM 42.7233 -70.7386 247° West 461 531 34,000  Level Boston Center
Wed 04:16:15 AM 42.6733 -70.8953 247° West 461 531 34,000  Level Boston Center
Wed 04:17:15 AM 42.6233 -71.0547 246° West 461 531 34,000  Level Boston Center
Wed 04:18:15 AM 42.5708 -71.2136 246° West 461 531 34,000  Level Boston Center
Wed 04:19:15 AM 42.5183 -71.3697 245° Southwest 461 531 34,000  Level Boston Center
Wed 04:20:15 AM 42.4656 -71.5253 245° Southwest 461 531 34,000  Level Boston Center
Wed 04:21:15 AM 42.4164 -71.6667 245° Southwest 461 531 34,000  Level Boston Center
Wed 04:22:15 AM 42.3653 -71.8164 247° West 461 531 34,000  Level Boston Center
Wed 04:23:15 AM 42.3139 -71.9769 245° Southwest 461 531 34,000  Level Boston Center
Wed 04:24:15 AM 42.2603 -72.1314 245° Southwest 461 531 34,000 -850 Level Boston Center
Wed 04:25:15 AM 42.2106 -72.2775 245° Southwest 454 522 32,300 -1,950 Descending Boston Center
Wed 04:26:15 AM 42.1608 -72.4233 245° Southwest 442 509 30,100 -2,100 Descending Boston Center
Wed 04:27:15 AM 42.1128 -72.5633 245° Southwest 431 496 28,100 -2,300 Descending Boston Center
Wed 04:28:15 AM 42.0603 -72.7114 245° Southwest 419 482 25,500 -2,050 Descending Boston Center
Wed 04:29:15 AM 42.0119 -72.8481 245° Southwest 408 470 24,000 -523 Descending Boston Center
Wed 04:31:07 AM 41.9126 -73.1299 245° Southwest 459 528 24,000  Level FlightAware ADS-B
Wed 04:31:36 AM 41.8833 -73.2124 245° Southwest 459 528 24,000  Level FlightAware ADS-B
Wed 04:32:10 AM 41.8546 -73.2946 244° Southwest 459 528 24,000  Level FlightAware ADS-B
Wed 04:32:49 AM 41.8187 -73.3949 245° Southwest 460 529 24,000 -674 Level FlightAware ADS-B
Wed 04:33:39 AM 41.7722 -73.5256 244° Southwest 457 526 23,000 -1,660 Descending FlightAware ADS-B
Wed 04:34:23 AM 41.7321 -73.6370 244° Southwest 457 526 21,400 -3,125 Descending FlightAware ADS-B
Wed 04:35:15 AM 41.6878 -73.7574 235° Southwest 421 484 18,000 -3,589 Descending FlightAware ADS-B
Wed 04:36:15 AM 41.6372 -73.8539 224° Southwest 394 453 14,700 -3,450 Descending Boston Center
Wed 04:37:15 AM 41.5608 -73.9522 222° Southwest 354 407 11,100 -2,300 Descending Boston Center
Wed 04:38:15 AM 41.4994 -74.0256 221° Southwest 328 377 10,100 -1,250 Descending Boston Center
Wed 04:39:15 AM 41.4442 -74.0906 222° Southwest 280 322 8,600 -857 Descending Boston Center
Wed 04:40:35 AM 41.3667 -74.1833 217° Southwest 259 298 8,100 -224 Descending New York TRACON
Wed 04:41:29 AM 41.3167 -74.2333 217° Southwest 257 296 8,100 -684 Level New York TRACON
Wed 04:42:29 AM 41.2667 -74.2833 156° South 262 302 6,800 -1,286 Descending New York TRACON
Wed 04:43:35 AM 41.1833 -74.2333 163° South 279 321 5,400 -1,091 Descending New York TRACON
Wed 04:44:41 AM 41.1000 -74.2000 153° Southeast 256 295 4,400 -750 Descending New York TRACON
Wed 04:45:35 AM 41.0500 -74.1667 159° South 244 281 3,900 -526 Descending New York TRACON
Wed 04:46:35 AM 40.9833 -74.1333 159° South 241 277 3,400 -400 Descending New York TRACON
Wed 04:47:35 AM 40.9167 -74.1000 166° South 239 275 3,100 -143 Descending New York TRACON
Wed 04:48:41 AM 40.8667 -74.0833 194° South 214 246 3,100 -238 Level New York TRACON
Wed 04:49:41 AM 40.8167 -74.1000 194° South 192 221 2,600 -762 Descending New York TRACON
Wed 04:50:47 AM 40.7667 -74.1167 207° Southwest 166 191 1,500 -905 Descending New York TRACON
Wed 04:51:47 AM 40.7167 -74.1500 207° Southwest 150 173 700 -800 Descending New York TRACON

Login

Don't have an account? Register now (free) for customized features, flight alerts, and more!